Time;durP1;ratioP1;P1;durP2;ratioP2;P2;SDS_P1;SDS_P2;PMS_P1;PMS_P2;Temp;Humidity;BMP_temperature;BMP_pressure;BME280_temperature;BME280_humidity;BME280_pressure;Samples;Min_cycle;Max_cycle;Signal;HPM_P1;HPM_P2
2022/09/03 00:01:13;;;;;;;5.00;0.75;;;19.50;91.60;;;;;;4977539;28;20303;-69
2022/09/03 00:03:51;;;;;;;3.05;0.88;;;19.40;91.70;;;;;;4978517;28;20051;-69
2022/09/03 00:06:22;;;;;;;1.90;0.70;;;19.40;91.80;;;;;;4977107;28;20055;-69
2022/09/03 00:09:02;;;;;;;2.30;0.80;;;19.30;91.70;;;;;;4978477;28;20042;-69
2022/09/03 00:11:42;;;;;;;2.50;0.80;;;19.30;91.80;;;;;;4978206;28;20039;-69
2022/09/03 00:14:21;;;;;;;2.75;0.80;;;19.30;91.70;;;;;;4978346;28;20325;-69
2022/09/03 00:17:10;;;;;;;4.68;0.82;;;19.30;91.80;;;;;;4976644;28;20058;-69
2022/09/03 00:19:55;;;;;;;2.33;0.73;;;19.30;91.70;;;;;;4977371;28;20096;-69
2022/09/03 00:22:30;;;;;;;1.80;0.60;;;19.20;91.80;;;;;;4978190;28;20078;-69
2022/09/03 00:25:01;;;;;;;2.35;0.65;;;19.20;91.80;;;;;;4977836;28;20038;-69
2022/09/03 00:27:28;;;;;;;3.10;0.65;;;19.10;91.80;;;;;;4977293;28;20051;-68
2022/09/03 00:29:59;;;;;;;3.80;0.70;;;19.00;92.10;;;;;;4977840;28;20062;-69
2022/09/03 00:32:47;;;;;;;3.30;0.68;;;19.00;91.90;;;;;;4976889;28;20079;-69
2022/09/03 00:35:31;;;;;;;2.45;0.60;;;19.10;92.00;;;;;;4976893;28;20129;-69
2022/09/03 00:37:58;;;;;;;0.95;0.40;;;19.10;92.00;;;;;;4977858;28;20054;-69
2022/09/03 00:40:48;;;;;;;3.60;0.50;;;19.00;92.00;;;;;;4977632;28;20334;-69
2022/09/03 00:43:31;;;;;;;0.80;0.60;;;18.90;91.80;;;;;;4977659;28;20092;-69
2022/09/03 00:46:04;;;;;;;2.88;0.70;;;18.80;91.90;;;;;;4977466;28;20050;-69
2022/09/03 00:48:38;;;;;;;8.48;0.57;;;18.80;92.00;;;;;;4977434;28;20121;-69
2022/09/03 00:51:33;;;;;;;1.40;0.60;;;18.80;92.00;;;;;;4992725;28;20057;-68
2022/09/03 00:54:19;;;;;;;2.50;0.70;;;18.80;92.00;;;;;;4975863;28;20309;-70
2022/09/03 00:57:04;;;;;;;1.13;0.70;;;18.90;91.90;;;;;;4977679;28;20393;-69
2022/09/03 00:59:33;;;;;;;6.43;0.50;;;18.70;92.00;;;;;;4976567;28;20456;-68
2022/09/03 01:02:53;;;;;;;4.53;0.77;;;18.80;92.00;;;;;;4977550;28;20051;-69
2022/09/03 01:05:28;;;;;;;2.13;0.65;;;18.80;92.20;;;;;;4975758;28;20466;-69
2022/09/03 01:07:54;;;;;;;1.95;0.50;;;18.60;92.20;;;;;;4977158;28;20055;-69
2022/09/03 01:10:31;;;;;;;1.75;0.47;;;18.60;92.10;;;;;;4977661;28;20047;-69
2022/09/03 01:13:18;;;;;;;2.33;0.70;;;18.60;92.20;;;;;;4992600;28;20043;-69
2022/09/03 01:16:01;;;;;;;1.83;0.73;;;18.70;92.00;;;;;;4977437;28;20509;-69
2022/09/03 01:18:59;;;;;;;4.47;1.05;;;18.80;92.20;;;;;;4977003;28;20043;-69
2022/09/03 01:21:37;;;;;;;3.05;1.20;;;18.60;92.20;;;;;;4977369;28;20054;-69
2022/09/03 01:24:12;;;;;;;5.05;1.70;;;18.60;92.00;;;;;;4977349;28;20425;-69
2022/09/03 01:27:14;;;;;;;4.80;1.48;;;18.50;92.00;;;;;;4977255;28;20042;-69
2022/09/03 01:29:49;;;;;;;8.90;2.13;;;18.40;92.20;;;;;;4977263;28;20110;-69
2022/09/03 01:32:47;;;;;;;5.87;2.23;;;18.30;92.20;;;;;;4977203;28;20494;-68
2022/09/03 01:35:16;;;;;;;6.68;2.20;;;18.40;92.20;;;;;;4976912;28;20461;-69
2022/09/03 01:37:56;;;;;;;5.68;2.10;;;18.40;92.20;;;;;;4978131;28;20057;-69
2022/09/03 01:40:41;;;;;;;4.63;2.33;;;18.20;92.20;;;;;;4981130;28;20329;-69
2022/09/03 01:43:34;;;;;;;5.38;2.03;;;18.20;92.10;;;;;;4981024;28;20049;-68
2022/09/03 01:46:12;;;;;;;3.42;1.67;;;18.20;92.20;;;;;;4996243;28;20384;-68
2022/09/03 01:48:59;;;;;;;4.38;1.23;;;18.20;92.20;;;;;;4980248;28;20385;-69
2022/09/03 01:51:29;;;;;;;6.50;1.13;;;18.20;92.30;;;;;;4980777;28;20049;-69
2022/09/03 01:54:35;;;;;;;6.05;0.90;;;18.20;92.10;;;;;;4980618;28;20043;-69
2022/09/03 01:57:19;;;;;;;4.72;1.00;;;18.20;92.10;;;;;;4980706;28;20039;-68
2022/09/03 02:00:00;;;;;;;4.20;0.60;;;18.20;92.00;;;;;;4980698;28;20097;-69
2022/09/03 02:02:27;;;;;;;4.50;1.08;;;18.20;92.40;;;;;;4980479;28;20043;-69
2022/09/03 02:05:01;;;;;;;4.07;0.77;;;18.20;92.20;;;;;;4980422;28;20039;-69
2022/09/03 02:07:41;;;;;;;6.28;0.73;;;18.20;92.10;;;;;;4980443;28;20444;-69
2022/09/03 02:10:11;;;;;;;4.60;0.70;;;18.30;92.30;;;;;;4980352;28;20042;-69
2022/09/03 02:12:38;;;;;;;10.35;1.10;;;18.30;92.20;;;;;;4980082;28;20142;-69
2022/09/03 02:15:10;;;;;;;5.53;0.85;;;18.20;92.30;;;;;;4980111;28;20441;-69
2022/09/03 02:17:36;;;;;;;3.58;0.80;;;18.10;92.10;;;;;;4979855;28;20117;-69
2022/09/03 02:20:07;;;;;;;3.33;0.63;;;18.10;92.40;;;;;;4980429;28;20043;-69
2022/09/03 02:22:33;;;;;;;4.78;0.80;;;18.10;92.10;;;;;;4980450;28;20038;-69
2022/09/03 02:24:59;;;;;;;1.63;0.40;;;18.00;92.10;;;;;;4980049;28;20337;-69
2022/09/03 02:27:26;;;;;;;1.67;0.70;;;18.00;92.20;;;;;;4979928;28;20125;-69
2022/09/03 02:29:52;;;;;;;5.95;0.73;;;18.00;92.40;;;;;;4978831;28;20051;-69
2022/09/03 02:32:18;;;;;;;2.13;0.75;;;17.90;92.30;;;;;;4979833;28;20433;-69
2022/09/03 02:34:43;;;;;;;3.35;0.60;;;17.90;92.30;;;;;;4995228;28;20059;-69
2022/09/03 02:37:14;;;;;;;4.38;0.70;;;17.80;92.40;;;;;;4979705;28;20046;-69
2022/09/03 02:39:40;;;;;;;3.08;0.63;;;17.80;92.40;;;;;;4979702;28;20122;-68
2022/09/03 02:42:06;;;;;;;3.47;0.65;;;17.80;92.60;;;;;;4995139;28;20429;-68
2022/09/03 02:44:35;;;;;;;1.48;0.60;;;17.80;92.40;;;;;;4979677;28;20035;-69
2022/09/03 02:47:03;;;;;;;5.38;0.57;;;17.70;92.60;;;;;;4994403;28;20046;-68
2022/09/03 02:49:30;;;;;;;2.90;0.50;;;17.80;92.50;;;;;;4978750;28;20078;-69
2022/09/03 02:51:59;;;;;;;3.63;0.80;;;17.80;92.60;;;;;;4979426;28;20043;-68
2022/09/03 02:54:27;;;;;;;2.72;0.70;;;17.70;92.30;;;;;;4979438;28;20171;-68
2022/09/03 02:56:52;;;;;;;3.42;0.60;;;17.70;92.50;;;;;;4979523;28;20049;-68
2022/09/03 02:59:18;;;;;;;1.83;0.90;;;17.60;92.30;;;;;;4979636;28;20038;-69
2022/09/03 03:01:44;;;;;;;4.63;0.80;;;17.70;92.60;;;;;;4979475;28;20071;-68
2022/09/03 03:04:10;;;;;;;3.13;0.50;;;17.70;92.50;;;;;;4979276;28;20081;-68
2022/09/03 03:06:35;;;;;;;4.63;0.90;;;17.70;92.60;;;;;;4979281;28;20046;-69
2022/09/03 03:09:04;;;;;;;1.25;0.52;;;17.70;92.70;;;;;;4979184;28;20050;-69
2022/09/03 03:11:30;;;;;;;3.97;0.70;;;17.80;92.70;;;;;;4994376;28;20050;-69
2022/09/03 03:13:56;;;;;;;3.47;0.70;;;17.80;92.60;;;;;;4978921;28;20122;-69
2022/09/03 03:16:22;;;;;;;4.25;0.90;;;17.90;92.40;;;;;;4979065;28;20457;-69
2022/09/03 03:18:48;;;;;;;4.22;0.88;;;17.80;92.50;;;;;;4993704;28;20043;-68
2022/09/03 03:21:16;;;;;;;1.63;0.80;;;17.60;92.50;;;;;;4978063;28;20140;-68
2022/09/03 03:23:42;;;;;;;3.33;0.80;;;17.70;92.80;;;;;;4979030;28;20038;-68
2022/09/03 03:26:10;;;;;;;3.15;0.70;;;17.60;92.70;;;;;;4979034;28;20093;-68
2022/09/03 03:28:36;;;;;;;4.03;0.77;;;17.60;92.70;;;;;;4978699;28;20133;-68
2022/09/03 03:31:13;;;;;;;5.72;0.80;;;17.60;92.50;;;;;;4978711;28;20126;-69
2022/09/03 03:33:39;;;;;;;3.72;0.70;;;17.60;92.70;;;;;;4978994;28;20047;-68
2022/09/03 03:36:13;;;;;;;2.05;0.90;;;17.70;92.80;;;;;;4978428;28;20138;-68
2022/09/03 03:38:41;;;;;;;4.13;0.90;;;17.70;92.60;;;;;;4979007;28;20058;-68
2022/09/03 03:41:09;;;;;;;3.20;0.82;;;17.80;92.80;;;;;;4978454;28;20045;-68
2022/09/03 03:43:35;;;;;;;2.05;0.75;;;17.90;92.80;;;;;;4977631;28;20046;-68
2022/09/03 03:46:00;;;;;;;4.43;0.95;;;18.00;92.90;;;;;;4978748;28;20102;-68
2022/09/03 03:48:26;;;;;;;2.63;0.80;;;18.00;92.70;;;;;;4993488;28;20038;-69
2022/09/03 03:50:52;;;;;;;5.10;1.10;;;18.00;92.70;;;;;;4978698;28;20403;-69
2022/09/03 03:53:18;;;;;;;1.92;0.98;;;18.00;92.80;;;;;;4993898;28;20050;-69
2022/09/03 03:55:54;;;;;;;2.72;0.85;;;18.00;92.80;;;;;;4978617;28;20050;-68
2022/09/03 03:58:20;;;;;;;2.25;0.75;;;18.00;92.90;;;;;;4977319;28;20082;-68
2022/09/03 04:00:48;;;;;;;4.18;0.90;;;18.00;92.70;;;;;;4977066;28;20042;-68
2022/09/03 04:03:14;;;;;;;3.90;1.17;;;17.90;92.70;;;;;;4978238;28;20089;-69
2022/09/03 04:05:39;;;;;;;2.00;0.90;;;17.90;92.60;;;;;;4978145;28;20405;-69
2022/09/03 04:08:05;;;;;;;5.20;1.00;;;17.80;92.60;;;;;;4978121;28;20074;-69
2022/09/03 04:10:31;;;;;;;1.45;0.82;;;17.60;92.70;;;;;;4978045;28;20042;-68
2022/09/03 04:12:57;;;;;;;2.38;0.90;;;17.60;93.00;;;;;;4993490;28;20039;-68
2022/09/03 04:15:22;;;;;;;3.58;0.80;;;17.60;92.80;;;;;;4977956;28;20441;-68
2022/09/03 04:17:48;;;;;;;3.20;0.98;;;17.60;92.80;;;;;;4977835;28;20073;-69
2022/09/03 04:20:14;;;;;;;2.75;0.80;;;17.50;92.90;;;;;;4977995;28;20043;-69
2022/09/03 04:22:39;;;;;;;2.05;1.10;;;17.60;92.90;;;;;;4977832;28;20046;-69
2022/09/03 04:25:05;;;;;;;3.10;0.77;;;17.50;92.80;;;;;;4978404;28;20417;-68
2022/09/03 04:27:31;;;;;;;5.45;1.25;;;17.50;92.80;;;;;;4977922;28;20429;-69
2022/09/03 04:29:56;;;;;;;3.15;1.20;;;17.50;93.00;;;;;;4978096;28;20042;-68
2022/09/03 04:35:06;;;;;;;1.48;0.85;;;17.50;93.00;;;;;;4977603;28;20066;-68
2022/09/03 04:37:32;;;;;;;2.67;1.13;;;17.40;93.10;;;;;;4992695;28;20054;-68
2022/09/03 04:39:57;;;;;;;2.47;1.30;;;17.20;93.00;;;;;;4976714;28;20078;-69
2022/09/03 04:42:23;;;;;;;2.00;1.00;;;17.20;93.10;;;;;;4977679;28;20054;-68
2022/09/03 04:44:49;;;;;;;2.65;1.10;;;17.10;93.30;;;;;;4977749;28;20050;-68
2022/09/03 04:47:15;;;;;;;3.15;1.13;;;17.00;93.10;;;;;;4977423;28;20042;-69
2022/09/03 04:49:41;;;;;;;1.92;0.90;;;17.00;93.30;;;;;;4977555;28;20065;-69
2022/09/03 04:52:06;;;;;;;2.28;1.40;;;17.10;93.30;;;;;;4976435;28;20043;-68
2022/09/03 04:54:32;;;;;;;2.38;1.17;;;17.10;93.30;;;;;;4977699;28;20117;-68
2022/09/03 04:56:58;;;;;;;4.05;1.17;;;17.10;93.10;;;;;;4977547;28;20046;-68
2022/09/03 04:59:23;;;;;;;2.50;1.00;;;16.90;93.20;;;;;;4977425;28;20043;-69
2022/09/03 05:01:51;;;;;;;2.58;1.10;;;16.90;93.40;;;;;;4977479;28;20039;-68
2022/09/03 05:04:18;;;;;;;3.30;1.30;;;17.10;93.40;;;;;;4977420;28;20137;-69
2022/09/03 05:06:44;;;;;;;4.82;1.20;;;17.10;93.30;;;;;;4977703;28;20133;-69
2022/09/03 05:09:10;;;;;;;2.28;1.08;;;17.00;93.30;;;;;;4992417;28;20089;-68
2022/09/03 05:11:36;;;;;;;3.42;1.30;;;17.10;93.40;;;;;;4976751;28;20050;-69
2022/09/03 05:14:04;;;;;;;2.15;1.10;;;17.10;93.40;;;;;;4980406;28;20042;-68
2022/09/03 05:16:30;;;;;;;1.75;1.00;;;17.10;93.50;;;;;;4981207;28;20441;-68
2022/09/03 05:19:00;;;;;;;4.40;1.40;;;17.10;93.50;;;;;;4996028;28;20085;-68
2022/09/03 05:21:27;;;;;;;1.48;0.90;;;17.10;93.40;;;;;;4980342;28;20329;-69
2022/09/03 05:23:53;;;;;;;2.72;1.20;;;17.10;93.60;;;;;;4981489;28;20042;-69
2022/09/03 05:26:24;;;;;;;3.55;1.25;;;17.10;93.50;;;;;;4981152;28;20123;-68
2022/09/03 05:28:58;;;;;;;3.35;1.15;;;17.10;93.70;;;;;;4981108;28;20067;-68
2022/09/03 05:31:26;;;;;;;4.88;1.42;;;17.00;93.50;;;;;;4980794;28;20445;-69
2022/09/03 05:33:58;;;;;;;4.68;1.40;;;17.00;93.40;;;;;;4980873;28;20062;-69
2022/09/03 05:36:26;;;;;;;4.00;1.50;;;17.00;93.50;;;;;;4980997;28;20133;-68
2022/09/03 05:38:56;;;;;;;2.42;1.33;;;16.90;93.60;;;;;;4980913;28;20152;-68
2022/09/03 05:41:22;;;;;;;4.68;1.52;;;16.90;93.60;;;;;;4980966;28;20051;-69
2022/09/03 05:43:53;;;;;;;3.35;1.35;;;16.90;93.60;;;;;;4979692;28;20058;-68
2022/09/03 05:46:20;;;;;;;4.60;1.67;;;16.90;93.60;;;;;;4980085;28;20401;-68
2022/09/03 05:48:46;;;;;;;3.47;1.30;;;16.90;93.60;;;;;;4980521;28;20122;-68
2022/09/03 05:51:16;;;;;;;4.40;1.60;;;16.90;93.90;;;;;;4980738;28;20117;-68
2022/09/03 05:53:47;;;;;;;4.55;1.30;;;17.00;93.60;;;;;;4979726;28;20447;-68
2022/09/03 05:56:18;;;;;;;3.42;1.20;;;17.00;93.60;;;;;;4979607;28;20047;-69
2022/09/03 05:58:52;;;;;;;4.18;1.45;;;16.80;93.60;;;;;;4980762;28;20483;-68
2022/09/03 06:01:25;;;;;;;2.38;1.40;;;16.70;93.80;;;;;;4980618;28;20034;-68
2022/09/03 06:03:57;;;;;;;3.42;1.30;;;16.80;93.80;;;;;;4980634;28;20057;-68
2022/09/03 06:06:24;;;;;;;4.88;1.52;;;16.80;93.80;;;;;;4979422;28;20053;-68
2022/09/03 06:08:51;;;;;;;4.28;1.30;;;16.80;94.00;;;;;;4995586;28;20054;-68
2022/09/03 06:11:16;;;;;;;5.00;1.60;;;16.80;93.80;;;;;;4979377;28;20058;-68
2022/09/03 06:13:42;;;;;;;3.08;1.50;;;16.90;93.90;;;;;;4980379;28;20426;-69
2022/09/03 06:16:08;;;;;;;2.88;1.42;;;17.00;93.90;;;;;;4980498;28;20156;-69
2022/09/03 06:18:34;;;;;;;6.50;1.50;;;17.10;93.80;;;;;;4979689;28;20417;-68
2022/09/03 06:21:03;;;;;;;4.93;1.60;;;17.10;94.00;;;;;;4980173;28;20122;-68
2022/09/03 06:23:30;;;;;;;3.05;1.48;;;17.10;93.90;;;;;;4979937;28;20117;-69
2022/09/03 06:26:10;;;;;;;4.25;1.60;;;17.10;93.90;;;;;;4980338;28;20047;-68
2022/09/03 06:28:38;;;;;;;3.50;1.45;;;17.10;93.90;;;;;;4979241;28;20042;-68
2022/09/03 06:31:08;;;;;;;2.90;1.58;;;17.30;93.90;;;;;;4979988;28;20043;-68
2022/09/03 06:33:35;;;;;;;3.75;1.80;;;17.40;93.90;;;;;;4979057;28;20050;-68
2022/09/03 06:36:03;;;;;;;4.97;1.52;;;17.40;93.90;;;;;;4979637;28;20448;-69
2022/09/03 06:38:32;;;;;;;3.38;1.48;;;17.20;94.00;;;;;;4979818;28;20043;-68
2022/09/03 06:41:03;;;;;;;4.32;1.48;;;17.20;94.00;;;;;;4979716;28;20170;-68
2022/09/03 06:43:34;;;;;;;7.95;1.70;;;17.30;93.90;;;;;;4995369;28;20047;-68
2022/09/03 06:46:12;;;;;;;3.60;1.08;;;17.30;93.90;;;;;;4978608;28;20051;-68
2022/09/03 06:48:42;;;;;;;3.58;1.42;;;17.30;94.20;;;;;;4979090;28;20049;-69
2022/09/03 06:51:13;;;;;;;5.28;1.52;;;17.40;93.90;;;;;;4979797;28;20042;-68
2022/09/03 06:53:44;;;;;;;8.18;1.50;;;17.30;94.00;;;;;;4979547;28;20042;-68
2022/09/03 06:56:26;;;;;;;4.53;1.40;;;17.30;94.10;;;;;;4979753;28;20063;-68
2022/09/03 06:58:57;;;;;;;4.50;1.60;;;17.40;94.00;;;;;;4979725;28;20129;-68
2022/09/03 07:01:25;;;;;;;3.78;1.40;;;17.50;93.80;;;;;;4979565;28;20039;-69
2022/09/03 07:03:57;;;;;;;4.40;1.13;;;17.50;93.90;;;;;;4979678;28;20183;-68
2022/09/03 07:06:26;;;;;;;5.57;1.55;;;17.60;94.20;;;;;;4979331;28;20442;-68
2022/09/03 07:08:52;;;;;;;4.57;1.52;;;17.70;94.10;;;;;;4979419;28;20053;-68
2022/09/03 07:11:21;;;;;;;3.83;1.67;;;17.90;93.90;;;;;;4979141;28;20480;-68
2022/09/03 07:13:49;;;;;;;5.63;1.48;;;17.80;93.90;;;;;;4979192;28;20046;-68
2022/09/03 07:16:16;;;;;;;8.05;1.35;;;17.80;94.00;;;;;;4979196;28;20344;-68
2022/09/03 07:18:45;;;;;;;6.05;1.40;;;18.00;94.20;;;;;;4978849;28;20066;-68
2022/09/03 07:21:13;;;;;;;11.07;1.40;;;18.10;94.10;;;;;;4979174;28;20039;-68
2022/09/03 07:23:40;;;;;;;4.45;1.33;;;18.40;94.00;;;;;;4979070;28;20043;-69
2022/09/03 07:26:09;;;;;;;3.47;1.42;;;18.30;93.90;;;;;;4978045;28;20073;-69
2022/09/03 07:28:36;;;;;;;5.07;1.13;;;18.40;93.90;;;;;;4978903;28;20513;-68
2022/09/03 07:31:10;;;;;;;4.55;1.30;;;18.60;93.80;;;;;;4979150;28;20038;-69
2022/09/03 07:33:36;;;;;;;2.10;1.00;;;18.50;93.90;;;;;;4978666;28;20082;-68
2022/09/03 07:36:05;;;;;;;2.40;1.20;;;18.60;94.00;;;;;;4978073;28;20055;-68
2022/09/03 07:38:34;;;;;;;6.20;1.25;;;18.70;93.80;;;;;;4978935;28;20421;-69
2022/09/03 07:41:03;;;;;;;3.58;1.20;;;18.80;93.80;;;;;;4978919;28;20039;-68
2022/09/03 07:43:33;;;;;;;8.30;1.20;;;18.90;93.70;;;;;;4978639;28;20043;-68
2022/09/03 07:46:00;;;;;;;3.83;1.20;;;18.70;93.70;;;;;;4978666;28;20042;-69
2022/09/03 07:48:26;;;;;;;2.95;1.40;;;18.70;93.60;;;;;;4977188;28;20047;-68
2022/09/03 07:50:52;;;;;;;8.43;1.10;;;18.90;93.40;;;;;;4978668;28;20117;-68
2022/09/03 07:53:21;;;;;;;5.75;1.30;;;18.90;93.60;;;;;;4978343;28;20492;-69
2022/09/03 07:55:48;;;;;;;4.10;1.30;;;19.00;93.40;;;;;;4978320;28;20545;-69
2022/09/03 07:58:13;;;;;;;2.22;1.08;;;19.10;93.40;;;;;;4993887;28;20035;-68
2022/09/03 08:00:39;;;;;;;7.65;1.20;;;19.20;93.30;;;;;;4978395;28;20311;-68
2022/09/03 08:03:07;;;;;;;6.63;1.55;;;19.20;93.30;;;;;;4993354;28;20115;-68
2022/09/03 08:05:35;;;;;;;8.80;3.05;;;19.20;93.40;;;;;;4993343;28;20452;-68
2022/09/03 08:08:02;;;;;;;4.57;1.13;;;19.20;93.30;;;;;;4977986;28;20049;-69
2022/09/03 08:10:29;;;;;;;2.90;1.05;;;19.30;93.30;;;;;;4978092;28;20054;-69
2022/09/03 08:12:57;;;;;;;2.75;1.20;;;19.30;93.40;;;;;;4978201;28;20081;-69
2022/09/03 08:15:23;;;;;;;8.18;1.00;;;19.40;93.30;;;;;;4978242;28;20054;-69
2022/09/03 08:17:49;;;;;;;4.53;1.05;;;19.50;93.40;;;;;;4976571;28;20053;-69
2022/09/03 08:20:15;;;;;;;2.95;0.93;;;19.70;93.30;;;;;;4978190;28;20035;-69
2022/09/03 08:22:40;;;;;;;9.82;1.40;;;19.80;93.30;;;;;;4977057;28;20057;-69
2022/09/03 08:25:06;;;;;;;5.03;1.40;;;19.80;93.10;;;;;;4977819;28;20062;-69
2022/09/03 08:27:32;;;;;;;4.68;1.17;;;19.80;93.10;;;;;;4978087;28;20043;-69
2022/09/03 08:29:58;;;;;;;4.05;1.15;;;19.90;93.10;;;;;;4977827;28;20043;-69
2022/09/03 08:32:23;;;;;;;2.63;1.02;;;19.90;93.20;;;;;;4978068;28;20043;-69
2022/09/03 08:34:51;;;;;;;4.00;0.95;;;20.20;93.20;;;;;;4977593;28;20096;-69
2022/09/03 08:37:17;;;;;;;5.90;1.17;;;20.20;93.20;;;;;;4977608;28;20090;-69
2022/09/03 08:39:43;;;;;;;2.03;1.08;;;20.30;93.00;;;;;;4977797;28;20307;-69
2022/09/03 08:42:22;;;;;;;3.38;1.13;;;20.40;93.00;;;;;;4977930;28;20031;-69
2022/09/03 08:44:52;;;;;;;2.70;1.20;;;20.50;92.80;;;;;;4977983;28;20047;-69
2022/09/03 08:47:27;;;;;;;2.28;1.10;;;20.60;93.00;;;;;;4976529;28;20383;-69
2022/09/03 08:50:07;;;;;;;1.92;0.82;;;20.70;93.10;;;;;;4977898;28;20042;-69
2022/09/03 08:52:45;;;;;;;2.83;1.00;;;20.90;93.20;;;;;;4977723;28;20043;-69
2022/09/03 08:55:30;;;;;;;3.75;1.23;;;21.10;93.10;;;;;;4976666;28;20049;-69
2022/09/03 08:58:19;;;;;;;3.08;1.08;;;20.90;92.90;;;;;;4977461;28;20434;-69
2022/09/03 09:01:10;;;;;;;4.28;1.13;;;21.10;93.10;;;;;;4977591;28;20043;-69
2022/09/03 09:03:44;;;;;;;6.20;1.02;;;21.20;93.00;;;;;;4993053;28;20038;-69
2022/09/03 09:06:21;;;;;;;3.88;1.13;;;21.40;93.10;;;;;;4977355;28;20046;-69
2022/09/03 09:09:06;;;;;;;4.00;1.02;;;21.40;93.10;;;;;;4977667;28;20067;-69
2022/09/03 09:11:45;;;;;;;3.50;1.10;;;21.60;92.70;;;;;;4977533;28;20042;-69
2022/09/03 09:14:48;;;;;;;2.25;1.00;;;21.70;92.90;;;;;;4977547;28;20075;-70
2022/09/03 09:17:30;;;;;;;4.40;1.10;;;21.90;92.80;;;;;;4977117;28;20405;-70
2022/09/03 09:20:29;;;;;;;2.05;1.15;;;21.70;92.50;;;;;;4977460;28;20049;-69
2022/09/03 09:23:05;;;;;;;2.95;1.20;;;21.60;92.50;;;;;;4977241;28;20232;-69
2022/09/03 09:25:36;;;;;;;8.75;1.27;;;21.80;92.80;;;;;;4977270;28;20050;-69
2022/09/03 09:28:15;;;;;;;4.55;0.90;;;22.00;92.60;;;;;;4977441;28;20512;-69
2022/09/03 09:30:43;;;;;;;3.60;1.10;;;22.20;92.80;;;;;;4977332;28;20054;-69
2022/09/03 09:33:08;;;;;;;5.00;1.05;;;22.40;93.00;;;;;;4977155;28;20047;-69
2022/09/03 09:35:34;;;;;;;4.80;1.13;;;22.50;92.60;;;;;;4992150;28;20053;-69
2022/09/03 09:38:00;;;;;;;5.00;0.93;;;22.50;92.60;;;;;;4977514;28;20337;-69
2022/09/03 09:40:37;;;;;;;2.13;0.98;;;22.70;92.60;;;;;;4977420;28;20050;-69
2022/09/03 09:43:21;;;;;;;4.32;0.82;;;22.70;92.40;;;;;;4977491;28;20074;-69
2022/09/03 09:45:48;;;;;;;3.05;1.00;;;22.80;92.70;;;;;;4977029;28;20039;-69
2022/09/03 09:48:30;;;;;;;4.72;0.95;;;23.10;92.50;;;;;;4976920;28;20090;-69
2022/09/03 09:51:10;;;;;;;3.75;0.80;;;23.30;92.10;;;;;;4977277;28;20050;-69
2022/09/03 09:53:36;;;;;;;5.45;1.00;;;23.20;92.50;;;;;;4976009;28;20039;-69
2022/09/03 09:56:02;;;;;;;3.25;1.10;;;23.50;92.30;;;;;;4977101;28;20039;-69
2022/09/03 09:58:29;;;;;;;2.97;0.80;;;23.60;92.30;;;;;;4977421;28;20031;-70
2022/09/03 10:01:04;;;;;;;2.08;0.80;;;23.60;92.00;;;;;;4980757;28;20068;-70
2022/09/03 10:03:36;;;;;;;7.63;0.90;;;23.70;92.30;;;;;;4980485;28;20039;-69
2022/09/03 10:09:14;;;;;;;1.40;0.65;;;24.20;92.40;;;;;;4980345;28;20353;-69
2022/09/03 10:11:49;;;;;;;5.45;0.98;;;24.40;91.90;;;;;;4980266;28;20589;-69
2022/09/03 10:14:21;;;;;;;1.33;0.60;;;24.20;92.00;;;;;;4980257;28;20425;-69
2022/09/03 10:16:56;;;;;;;3.53;0.70;;;24.40;92.00;;;;;;4980274;28;20042;-70
2022/09/03 10:19:38;;;;;;;8.20;0.90;;;24.60;92.00;;;;;;4978609;28;20049;-70
2022/09/03 10:22:16;;;;;;;3.13;0.73;;;24.80;91.90;;;;;;4980337;28;20042;-69
2022/09/03 10:24:58;;;;;;;4.47;0.80;;;25.00;91.70;;;;;;4980115;28;20045;-69
2022/09/03 10:27:24;;;;;;;4.93;0.75;;;25.00;91.60;;;;;;4980018;28;20435;-70
2022/09/03 10:29:51;;;;;;;3.90;0.82;;;25.10;91.80;;;;;;4979986;28;20060;-70
2022/09/03 10:32:34;;;;;;;5.22;0.80;;;25.30;91.60;;;;;;4978923;28;20047;-69
2022/09/03 10:35:27;;;;;;;3.22;0.82;;;25.50;91.50;;;;;;4980182;28;20042;-69
2022/09/03 10:38:10;;;;;;;3.22;0.70;;;25.40;91.30;;;;;;4979800;28;20357;-69
2022/09/03 10:40:49;;;;;;;4.47;0.75;;;25.60;91.40;;;;;;4979913;28;20043;-70
2022/09/03 10:43:20;;;;;;;1.90;0.60;;;25.60;91.00;;;;;;4979310;28;20046;-70
2022/09/03 10:46:09;;;;;;;4.65;0.90;;;25.70;90.90;;;;;;4979743;28;20038;-69
2022/09/03 10:48:59;;;;;;;7.32;0.60;;;25.80;91.00;;;;;;4978423;28;20042;-69
2022/09/03 10:51:34;;;;;;;7.80;0.80;;;25.80;90.90;;;;;;4979473;28;20078;-69
2022/09/03 10:54:26;;;;;;;2.90;0.65;;;26.10;91.00;;;;;;4979619;28;20042;-69
2022/09/03 10:57:25;;;;;;;4.97;1.05;;;26.30;90.90;;;;;;4979794;28;20047;-70
2022/09/03 11:00:09;;;;;;;4.00;0.70;;;26.40;90.70;;;;;;4979429;28;20043;-69
2022/09/03 11:02:57;;;;;;;6.15;0.80;;;26.50;90.80;;;;;;4979598;28;20043;-69
2022/09/03 11:05:37;;;;;;;3.88;0.70;;;26.90;90.60;;;;;;4979193;28;20116;-70
2022/09/03 11:08:15;;;;;;;3.45;0.90;;;26.90;90.50;;;;;;4979541;28;20105;-70
2022/09/03 11:10:48;;;;;;;2.50;0.60;;;26.90;90.70;;;;;;4978535;28;20050;-70
2022/09/03 11:13:28;;;;;;;7.97;0.95;;;26.90;90.50;;;;;;4979319;28;20054;-69
2022/09/03 11:15:59;;;;;;;2.10;0.82;;;27.10;90.30;;;;;;4979468;28;20046;-70
2022/09/03 11:18:45;;;;;;;4.45;0.68;;;27.30;90.70;;;;;;4978528;28;20459;-70
2022/09/03 11:21:19;;;;;;;4.72;0.70;;;27.30;90.40;;;;;;4994260;28;20589;-70
2022/09/03 11:23:47;;;;;;;4.03;0.73;;;27.30;90.50;;;;;;4979138;28;20047;-70
2022/09/03 11:26:18;;;;;;;3.95;0.68;;;27.50;90.50;;;;;;4978875;28;20047;-70
2022/09/03 11:29:01;;;;;;;2.45;0.77;;;28.00;90.50;;;;;;4979122;28;20046;-70
2022/09/03 11:32:02;;;;;;;2.72;0.80;;;27.90;90.20;;;;;;4978919;28;20047;-70
2022/09/03 11:34:29;;;;;;;1.90;0.60;;;27.80;89.90;;;;;;4978622;28;20050;-70
2022/09/03 11:37:11;;;;;;;9.45;0.70;;;27.90;89.90;;;;;;4977660;28;20058;-70
2022/09/03 11:39:39;;;;;;;2.83;0.65;;;28.00;90.20;;;;;;4978694;28;20408;-70
2022/09/03 11:42:23;;;;;;;4.93;0.90;;;28.20;89.20;;;;;;4993883;28;20381;-70
2022/09/03 11:44:53;;;;;;;4.60;0.60;;;28.20;89.70;;;;;;4978502;28;20457;-70
2022/09/03 11:47:18;;;;;;;3.25;0.73;;;28.50;89.50;;;;;;4978337;28;20061;-71
2022/09/03 11:49:49;;;;;;;1.85;0.50;;;28.40;89.50;;;;;;4977624;28;20047;-70
2022/09/03 11:52:30;;;;;;;1.13;0.60;;;28.60;90.00;;;;;;4978622;28;20042;-70
2022/09/03 11:54:56;;;;;;;3.30;0.60;;;29.10;89.70;;;;;;4978681;28;20039;-70
2022/09/03 11:57:30;;;;;;;1.30;0.63;;;29.00;89.30;;;;;;4977522;28;20074;-70
2022/09/03 12:00:11;;;;;;;9.18;0.80;;;28.90;89.00;;;;;;4978295;28;20118;-70
2022/09/03 12:02:44;;;;;;;4.10;0.60;;;29.20;89.40;;;;;;4978472;28;20070;-70
2022/09/03 12:05:19;;;;;;;3.33;0.60;;;29.50;88.90;;;;;;4978343;28;20038;-70
2022/09/03 12:08:07;;;;;;;2.40;1.00;;;29.70;89.40;;;;;;4978132;28;20046;-70
2022/09/03 12:10:50;;;;;;;3.50;0.95;;;29.70;89.00;;;;;;4978201;28;20046;-70
2022/09/03 12:13:39;;;;;;;4.85;0.80;;;29.40;88.60;;;;;;4978309;28;20298;-71
2022/09/03 12:16:23;;;;;;;2.47;0.70;;;29.20;88.00;;;;;;4978329;28;20046;-70
2022/09/03 12:18:51;;;;;;;1.58;0.60;;;29.20;88.70;;;;;;4977738;28;20085;-70
2022/09/03 12:21:18;;;;;;;4.85;0.75;;;29.60;88.50;;;;;;4977960;28;20047;-70
2022/09/03 12:23:51;;;;;;;5.05;1.00;;;29.80;89.00;;;;;;4977812;28;20074;-70
2022/09/03 12:26:20;;;;;;;3.92;0.73;;;29.70;88.60;;;;;;4978058;28;20038;-70
2022/09/03 12:28:48;;;;;;;3.95;0.55;;;29.70;88.50;;;;;;4977842;28;20126;-70
2022/09/03 12:31:22;;;;;;;1.55;0.60;;;30.10;88.70;;;;;;4977974;28;20038;-70
2022/09/03 12:33:53;;;;;;;5.15;0.70;;;30.10;88.30;;;;;;4977905;28;20042;-70
2022/09/03 12:36:21;;;;;;;3.25;0.60;;;29.90;88.00;;;;;;4977642;28;20133;-70
2022/09/03 12:38:47;;;;;;;3.95;0.70;;;30.10;88.20;;;;;;4993142;28;20142;-70
2022/09/03 12:41:29;;;;;;;1.13;0.50;;;30.00;88.30;;;;;;4977698;28;20039;-70
2022/09/03 12:43:58;;;;;;;2.95;0.77;;;30.30;88.30;;;;;;4977539;28;20345;-70
2022/09/03 12:46:26;;;;;;;2.58;0.60;;;30.50;87.80;;;;;;4977026;28;20038;-70
2022/09/03 12:49:06;;;;;;;2.30;0.50;;;30.60;88.60;;;;;;4976362;28;20054;-70
2022/09/03 12:51:40;;;;;;;3.92;0.90;;;30.80;88.00;;;;;;4976599;28;20039;-70
2022/09/03 12:54:13;;;;;;;1.73;0.68;;;30.50;87.60;;;;;;4976629;28;20389;-70
2022/09/03 12:56:39;;;;;;;1.00;0.60;;;30.00;87.30;;;;;;4977621;28;20114;-70
2022/09/03 12:59:16;;;;;;;2.92;0.68;;;30.50;88.30;;;;;;4977831;28;20038;-71
2022/09/03 13:01:58;;;;;;;6.40;0.63;;;31.00;87.60;;;;;;4977484;28;20043;-70
2022/09/03 13:04:31;;;;;;;2.72;0.68;;;31.10;88.30;;;;;;4977848;28;20039;-71
2022/09/03 13:07:13;;;;;;;2.45;0.70;;;31.60;88.60;;;;;;4977412;28;20070;-70
2022/09/03 13:09:41;;;;;;;1.45;0.63;;;31.70;87.40;;;;;;4977443;28;20426;-70
2022/09/03 13:12:29;;;;;;;2.58;0.63;;;31.60;88.10;;;;;;4977395;28;20429;-70
2022/09/03 13:14:55;;;;;;;2.60;0.60;;;31.80;87.40;;;;;;4977216;28;20102;-71
2022/09/03 13:17:56;;;;;;;5.40;0.60;;;31.80;87.70;;;;;;4977452;28;20038;-75
2022/09/03 13:20:49;;;;;;;6.22;0.77;;;31.70;87.20;;;;;;4977490;28;20053;-70
2022/09/03 13:23:55;;;;;;;5.15;1.00;;;31.80;87.30;;;;;;4977461;28;20117;-71